M I D A S
Marine Information and Data Acquisition System
Tripno 822 of the Zeeleeuw from 2004-12-17 08:20:03 to 2004-12-17 16:27:23
Back to CruiseResearch ActivitiesStationsMapUnderway DataData graphs

EquipmentUnitsComment
TimeDGPSUTC
LatitudeDGPSDM.mWGS84
LongitudeDGPSDM.mWGS84
HeadingGyrodeg 
SOGDGPSknotsSpeed over ground
COGDGPSdegCourse over ground
DepthEcho soundermeters200 kHz
Missing or incorrect values are displayed as -999
Navigation data collected by the RV Zeeleeuw from 2004-12-17 06:34:48 to 2004-12-17 17:09:45
                                                                                    Next 1000 lines
Time Latitude Longitude Heading SOG COG Depth
2004-12-17 06:34:58 51°13.602 2°56.105 126.3 0.2 11 -999
2004-12-17 06:35:03 51°13.6 2°56.104 126.3 0.1 8 -999
2004-12-17 06:35:08 51°13.6 2°56.103 126.3 0.1 11 -999
2004-12-17 06:35:13 51°13.6 2°56.103 126.3 0.1 10 -999
2004-12-17 06:35:18 51°13.6 2°56.103 126.3 0.1 10 -999
2004-12-17 06:35:23 51°13.6 2°56.104 126.3   5 -999
2004-12-17 06:35:28 51°13.6 2°56.104 126.3   356 -999
2004-12-17 06:35:33 51°13.6 2°56.104 126.3   13 -999
2004-12-17 06:35:38 51°13.6 2°56.104 126.4     -999
2004-12-17 06:35:43 51°13.6 2°56.104 126.4   13 -999
2004-12-17 06:35:48 51°13.599 2°56.104 126.4   348 -999
2004-12-17 06:35:53 51°13.599 2°56.104 126.4   12 -999
2004-12-17 06:35:58 51°13.598 2°56.104 126.4   357 -999
2004-12-17 06:36:03 51°13.598 2°56.103 126.4   12 -999
2004-12-17 06:36:08 51°13.597 2°56.103 126.4   5 -999
2004-12-17 06:36:13 51°13.597 2°56.103 126.4   355 -999
2004-12-17 06:36:18 51°13.597 2°56.103 126.4   345 -999
2004-12-17 06:36:23 51°13.597 2°56.103 126.4   23 -999
2004-12-17 06:36:28 51°13.596 2°56.103 126.4   28 -999
2004-12-17 06:36:33 51°13.596 2°56.103 126.4   349 -999
2004-12-17 06:36:38 51°13.596 2°56.103 126.4   349 -999
2004-12-17 06:36:43 51°13.596 2°56.102 126.4   357 -999
2004-12-17 06:36:48 51°13.596 2°56.102 126.4   319 -999
2004-12-17 06:36:53 51°13.596 2°56.102 126.4   332 -999
2004-12-17 06:36:58 51°13.596 2°56.102 126.4   343 -999
2004-12-17 06:37:03 51°13.596 2°56.102 126.4   34 -999
2004-12-17 06:37:08 51°13.595 2°56.102 126.4   163 -999
2004-12-17 06:37:13 51°13.595 2°56.102 126.4   17 -999
2004-12-17 06:37:18 51°13.595 2°56.101 126.5   294 -999
2004-12-17 06:37:23 51°13.596 2°56.101 126.5   334 -999
2004-12-17 06:37:28 51°13.596 2°56.101 126.5   313 -999
2004-12-17 06:37:33 51°13.596 2°56.101 126.5   5 -999
2004-12-17 06:37:38 51°13.596 2°56.101 126.5   349 -999
2004-12-17 06:37:43 51°13.596 2°56.101 126.6   8 -999
2004-12-17 06:37:48 51°13.596 2°56.101 126.6   23 -999
2004-12-17 06:37:53 51°13.596 2°56.101 126.6   356 -999
2004-12-17 06:37:58 51°13.596 2°56.101 126.6 0.1 355 -999
2004-12-17 06:38:03 51°13.595 2°56.101 126.6 0.1 356 -999
2004-12-17 06:38:08 51°13.595 2°56.101 126.6   15 -999
2004-12-17 06:38:13 51°13.595 2°56.101 126.6   7 -999
2004-12-17 06:38:18 51°13.595 2°56.102 126.6   15 -999
2004-12-17 06:38:23 51°13.594 2°56.102 126.6   10 -999
2004-12-17 06:38:28 51°13.594 2°56.101 126.6   1 -999
2004-12-17 06:38:33 51°13.594 2°56.101 126.6   13 -999
2004-12-17 06:38:38 51°13.594 2°56.101 126.6   8 -999
2004-12-17 06:38:43 51°13.595 2°56.101 126.6   357 -999
2004-12-17 06:38:48 51°13.595 2°56.101 126.6     -999
2004-12-17 06:38:53 51°13.595 2°56.101 126.6   358 -999
2004-12-17 06:38:58 51°13.595 2°56.101 126.6   5 -999
2004-12-17 06:39:04 51°13.595 2°56.101 126.6     -999
2004-12-17 06:39:09 51°13.595 2°56.101 126.6   348 -999
2004-12-17 06:39:14 51°13.595 2°56.101 126.6   14 -999
2004-12-17 06:39:19 51°13.595 2°56.101 126.6   340 -999
2004-12-17 06:39:24 51°13.595 2°56.101 126.6   357 -999
2004-12-17 06:39:29 51°13.595 2°56.101 126.6   355 -999
2004-12-17 06:39:33 51°13.595 2°56.101 126.5 0.1 5 -999
2004-12-17 06:39:39 51°13.595 2°56.101 126.5   350 -999
2004-12-17 06:39:44 51°13.595 2°56.101 126.5   34 -999
2004-12-17 06:39:49 51°13.595 2°56.101 126.4   20 -999
2004-12-17 06:39:53 51°13.595 2°56.101 126.4   340 -999
2004-12-17 06:39:59 51°13.595 2°56.101 126.4   339 -999
2004-12-17 06:40:04 51°13.595 2°56.101 126.4   358 -999
2004-12-17 06:40:09 51°13.595 2°56.101 126.4   334 -999
2004-12-17 06:40:13 51°13.595 2°56.101 126.4   345 -999
2004-12-17 06:40:19 51°13.595 2°56.101 126.4   353 -999
2004-12-17 06:40:24 51°13.595 2°56.101 126.4   353 -999
2004-12-17 06:40:29 51°13.595 2°56.101 126.4 0.1 4 -999
2004-12-17 06:40:33 51°13.595 2°56.101 126.4   5 -999
2004-12-17 06:40:39 51°13.595 2°56.101 126.3 0.1 28 -999
2004-12-17 06:40:44 51°13.595 2°56.101 126.3   18 -999
2004-12-17 06:40:49 51°13.595 2°56.101 126.3   28 -999
2004-12-17 06:40:53 51°13.595 2°56.101 126.3   26 -999
2004-12-17 06:40:59 51°13.595 2°56.101 126.3   331 -999
2004-12-17 06:41:04 51°13.595 2°56.101 126.3   11 -999
2004-12-17 06:41:09 51°13.595 2°56.101 126.3   25 -999
2004-12-17 06:41:13 51°13.595 2°56.101 126.3   2 -999
2004-12-17 06:41:19 51°13.595 2°56.101 126.3   358 -999
2004-12-17 06:41:24 51°13.595 2°56.101 126.4   22 -999
2004-12-17 06:41:29 51°13.595 2°56.101 126.4   346 -999
2004-12-17 06:41:33 51°13.595 2°56.101 126.4   4 -999
2004-12-17 06:41:39 51°13.595 2°56.101 126.4   358 -999
2004-12-17 06:41:44 51°13.595 2°56.101 126.4   8 -999
2004-12-17 06:41:49 51°13.595 2°56.101 126.4   351 -999
2004-12-17 06:41:53 51°13.596 2°56.101 126.4   32 -999
2004-12-17 06:41:59 51°13.596 2°56.101 126.4   20 -999
2004-12-17 06:42:04 51°13.596 2°56.1 126.4   356 -999
2004-12-17 06:42:09 51°13.596 2°56.1 126.4 0.1 351 -999
2004-12-17 06:42:13 51°13.596 2°56.1 126.4   356 -999
2004-12-17 06:42:19 51°13.596 2°56.1 126.4   244 -999
2004-12-17 06:42:24 51°13.596 2°56.1 126.4   30 -999
2004-12-17 06:42:29 51°13.596 2°56.1 126.4   7 -999
2004-12-17 06:42:33 51°13.596 2°56.1 126.4     -999
2004-12-17 06:42:39 51°13.596 2°56.101 126.4   14 -999
2004-12-17 06:42:44 51°13.596 2°56.101 126.4   353 -999
2004-12-17 06:42:49 51°13.596 2°56.101 126.4   347 -999
2004-12-17 06:42:53 51°13.596 2°56.101 126.4   293 -999
2004-12-17 06:42:59 51°13.596 2°56.101 126.4   14 -999
2004-12-17 06:43:04 51°13.596 2°56.101 126.4   13 -999
2004-12-17 06:43:09 51°13.596 2°56.101 126.4   9 -999
2004-12-17 06:43:13 51°13.596 2°56.101 126.4 0.1 19 -999
2004-12-17 06:43:19 51°13.596 2°56.101 126.4   353 -999
2004-12-17 06:43:24 51°13.596 2°56.101 126.4   350 -999
2004-12-17 06:43:29 51°13.596 2°56.101 126.4   348 -999
2004-12-17 06:43:33 51°13.596 2°56.101 126.4   356 -999
2004-12-17 06:43:39 51°13.596 2°56.101 126.4   5 -999
2004-12-17 06:43:44 51°13.596 2°56.101 126.4   9 -999
2004-12-17 06:43:49 51°13.596 2°56.101 126.4   4 -999
2004-12-17 06:43:53 51°13.596 2°56.101 126.4   10 -999
2004-12-17 06:43:59 51°13.596 2°56.101 126.3   319 -999
2004-12-17 06:44:04 51°13.596 2°56.101 126.3   296 -999
2004-12-17 06:44:09 51°13.596 2°56.101 126.3   352 -999
2004-12-17 06:44:13 51°13.596 2°56.101 126.3   67 -999
2004-12-17 06:44:19 51°13.596 2°56.101 126.3   37 -999
2004-12-17 06:44:24 51°13.596 2°56.101 126.4   16 -999
2004-12-17 06:44:29 51°13.596 2°56.102 126.4   12 -999
2004-12-17 06:44:33 51°13.596 2°56.102 126.4   335 -999
2004-12-17 06:44:39 51°13.596 2°56.102 126.4   354 -999
2004-12-17 06:44:44 51°13.596 2°56.102 126.4   23 -999
2004-12-17 06:44:49 51°13.596 2°56.102 126.4   42 -999
2004-12-17 06:44:53 51°13.596 2°56.102 126.4   348 -999
2004-12-17 06:44:59 51°13.596 2°56.102 126.4   347 -999
2004-12-17 06:45:04 51°13.595 2°56.102 126.4   11 -999
2004-12-17 06:45:09 51°13.595 2°56.102 126.4   10 -999
2004-12-17 06:45:13 51°13.595 2°56.102 126.4   314 -999
2004-12-17 06:45:19 51°13.595 2°56.102 126.4   351 -999
2004-12-17 06:45:24 51°13.595 2°56.102 126.4   358 -999
2004-12-17 06:45:29 51°13.595 2°56.102 126.4   24 -999
2004-12-17 06:45:33 51°13.595 2°56.102 126.4   16 -999
2004-12-17 06:45:39 51°13.595 2°56.102 126.4   14 -999
2004-12-17 06:45:44 51°13.594 2°56.102 126.4   336 -999
2004-12-17 06:45:49 51°13.594 2°56.102 126.4   337 -999
2004-12-17 06:45:53 51°13.594 2°56.102 126.4   282 -999
2004-12-17 06:45:59 51°13.594 2°56.102 126.4   27 -999
2004-12-17 06:46:04 51°13.594 2°56.102 126.4   20 -999
2004-12-17 06:46:09 51°13.594 2°56.102 126.4   20 -999
2004-12-17 06:46:13 51°13.594 2°56.102 126.4   348 -999
2004-12-17 06:46:19 51°13.594 2°56.102 126.4   353 -999
2004-12-17 06:46:24 51°13.594 2°56.102 126.4   318 -999
2004-12-17 06:46:29 51°13.594 2°56.102 126.4   1 -999
2004-12-17 06:46:33 51°13.594 2°56.102 126.4   356 -999
2004-12-17 06:46:39 51°13.594 2°56.102 126.4   21 -999
2004-12-17 06:46:44 51°13.593 2°56.102 126.3   9 -999
2004-12-17 06:46:49 51°13.593 2°56.102 126.2   15 -999
2004-12-17 06:46:53 51°13.593 2°56.102 126.2   355 -999
2004-12-17 06:46:59 51°13.593 2°56.102 126.2   331 -999
2004-12-17 06:47:04 51°13.593 2°56.102 126.2   4 -999
2004-12-17 06:47:09 51°13.594 2°56.102 126.2   349 -999
2004-12-17 06:47:13 51°13.594 2°56.102 126.2   18 -999
2004-12-17 06:47:19 51°13.594 2°56.102 126.2   28 -999
2004-12-17 06:47:24 51°13.594 2°56.102 126.2   34 -999
2004-12-17 06:47:29 51°13.594 2°56.102 126.2   19 -999
2004-12-17 06:47:33 51°13.594 2°56.102 126.2   357 -999
2004-12-17 06:47:39 51°13.594 2°56.102 126.2   286 -999
2004-12-17 06:47:44 51°13.594 2°56.102 126.2   284 -999
2004-12-17 06:47:49 51°13.594 2°56.102 126.2   349 -999
2004-12-17 06:47:53 51°13.594 2°56.102 126.2   350 -999
2004-12-17 06:47:59 51°13.594 2°56.102 126.3   15 -999
2004-12-17 06:48:04 51°13.594 2°56.102 126.3   338 -999
2004-12-17 06:48:09 51°13.594 2°56.102 126.3   22 -999
2004-12-17 06:48:13 51°13.594 2°56.102 126.3   271 -999
2004-12-17 06:48:19 51°13.594 2°56.102 126.3   7 -999
2004-12-17 06:48:24 51°13.594 2°56.102 126.3     -999
2004-12-17 06:48:29 51°13.594 2°56.102 126.3   6 -999
2004-12-17 06:48:33 51°13.594 2°56.102 126.3   341 -999
2004-12-17 06:48:39 51°13.594 2°56.102 126.3   11 -999
2004-12-17 06:48:44 51°13.594 2°56.102 126.3   340 -999
2004-12-17 06:48:49 51°13.594 2°56.102 126.3   349 -999
2004-12-17 06:48:53 51°13.594 2°56.102 126.3   1 -999
2004-12-17 06:48:59 51°13.594 2°56.102 126.3   11 -999
2004-12-17 06:49:04 51°13.594 2°56.102 126.3   46 -999
2004-12-17 06:49:09 51°13.594 2°56.102 126.3   156 -999
2004-12-17 06:49:13 51°13.594 2°56.102 126.3   18 -999
2004-12-17 06:49:19 51°13.594 2°56.102 126.3   10 -999
2004-12-17 06:49:24 51°13.594 2°56.102 126.3   15 -999
2004-12-17 06:49:29 51°13.594 2°56.102 126.3   334 -999
2004-12-17 06:49:33 51°13.594 2°56.102 126.3   3 -999
2004-12-17 06:49:39 51°13.594 2°56.102 126.3   12 -999
2004-12-17 06:49:44 51°13.594 2°56.102 126.3   33 -999
2004-12-17 06:49:49 51°13.594 2°56.102 126.3   32 -999
2004-12-17 06:49:53 51°13.595 2°56.102 126.3   11 -999
2004-12-17 06:49:59 51°13.595 2°56.102 126.3   356 -999
2004-12-17 06:50:04 51°13.595 2°56.102 126.3   334 -999
2004-12-17 06:50:09 51°13.595 2°56.102 126.3   353 -999
2004-12-17 06:50:13 51°13.595 2°56.102 126.4   16 -999
2004-12-17 06:50:19 51°13.595 2°56.102 126.4   8 -999
2004-12-17 06:50:24 51°13.595 2°56.102 126.4   17 -999
2004-12-17 06:50:29 51°13.595 2°56.102 126.4   38 -999
2004-12-17 06:50:33 51°13.595 2°56.102 126.4   28 -999
2004-12-17 06:50:39 51°13.595 2°56.102 126.4   321 -999
2004-12-17 06:50:44 51°13.595 2°56.102 126.4   285 -999
2004-12-17 06:50:49 51°13.596 2°56.102 126.4   298 -999
2004-12-17 06:50:53 51°13.596 2°56.102 126.4   14 -999
2004-12-17 06:50:59 51°13.596 2°56.102 126.4   7 -999
2004-12-17 06:51:04 51°13.596 2°56.102 126.4   25 -999
2004-12-17 06:51:09 51°13.596 2°56.102 126.4   301 -999
2004-12-17 06:51:13 51°13.596 2°56.102 126.4   217 -999
2004-12-17 06:51:19 51°13.596 2°56.102 126.4   53 -999
2004-12-17 06:51:24 51°13.596 2°56.102 126.4   340 -999
2004-12-17 06:51:29 51°13.596 2°56.102 126.4   304 -999
2004-12-17 06:51:33 51°13.596 2°56.102 126.4   339 -999
2004-12-17 06:51:39 51°13.596 2°56.102 126.4   237 -999
2004-12-17 06:51:44 51°13.596 2°56.102 126.4   343 -999
2004-12-17 06:51:49 51°13.596 2°56.102 126.4   10 -999
2004-12-17 06:51:53 51°13.596 2°56.102 126.4   5 -999
2004-12-17 06:51:59 51°13.596 2°56.102 126.4   5 -999
2004-12-17 06:52:04 51°13.596 2°56.102 126.4   344 -999
2004-12-17 06:52:09 51°13.596 2°56.102 126.5   358 -999
2004-12-17 06:52:13 51°13.596 2°56.102 126.5   353 -999
2004-12-17 06:52:19 51°13.596 2°56.102 126.4   318 -999
2004-12-17 06:52:24 51°13.596 2°56.102 126.4   30 -999
2004-12-17 06:52:29 51°13.596 2°56.102 126.4   33 -999
2004-12-17 06:52:33 51°13.596 2°56.102 126.4   347 -999
2004-12-17 06:52:39 51°13.596 2°56.102 126.4   344 -999
2004-12-17 06:52:44 51°13.596 2°56.102 126.4   12 -999
2004-12-17 06:52:49 51°13.596 2°56.102 126.4   250 -999
2004-12-17 06:52:53 51°13.595 2°56.102 126.4   259 -999
2004-12-17 06:52:59 51°13.595 2°56.102 126.4   296 -999
2004-12-17 06:53:04 51°13.595 2°56.102 126.4   270 -999
2004-12-17 06:53:09 51°13.595 2°56.102 126.4   325 -999
2004-12-17 06:53:13 51°13.595 2°56.103 126.4   131 -999
2004-12-17 06:53:19 51°13.594 2°56.103 126.4   82 -999
2004-12-17 06:53:24 51°13.594 2°56.103 126.4   82 -999
2004-12-17 06:53:29 51°13.594 2°56.103 126.4   336 -999
2004-12-17 06:53:33 51°13.594 2°56.103 126.4   344 -999
2004-12-17 06:53:39 51°13.594 2°56.103 126.4   349 -999
2004-12-17 06:53:44 51°13.594 2°56.102 126.4   23 -999
2004-12-17 06:53:49 51°13.594 2°56.102 126.5   1 -999
2004-12-17 06:53:53 51°13.594 2°56.102 126.5   265 -999
2004-12-17 06:53:59 51°13.594 2°56.102 126.5   7 -999
2004-12-17 06:54:04 51°13.594 2°56.102 126.5   28 -999
2004-12-17 06:54:09 51°13.594 2°56.102 126.5   333 -999
2004-12-17 06:54:13 51°13.594 2°56.102 126.5   311 -999
2004-12-17 06:54:19 51°13.594 2°56.102 126.5   333 -999
2004-12-17 06:54:24 51°13.594 2°56.102 126.5   353 -999
2004-12-17 06:54:29 51°13.594 2°56.102 126.5   344 -999
2004-12-17 06:54:33 51°13.594 2°56.103 126.5   56 -999
2004-12-17 06:54:39 51°13.594 2°56.103 126.5   121 -999
2004-12-17 06:54:44 51°13.594 2°56.103 126.5   331 -999
2004-12-17 06:54:49 51°13.594 2°56.103 126.5   265 -999
2004-12-17 06:54:53 51°13.595 2°56.103 126.5   348 -999
2004-12-17 06:54:59 51°13.595 2°56.104 126.5   355 -999
2004-12-17 06:55:04 51°13.594 2°56.104 126.5   286 -999
2004-12-17 06:55:09 51°13.594 2°56.104 126.5   7 -999
2004-12-17 06:55:13 51°13.594 2°56.104 126.5   346 -999
2004-12-17 06:55:19 51°13.594 2°56.104 126.5   344 -999
2004-12-17 06:55:24 51°13.594 2°56.104 126.4   340 -999
2004-12-17 06:55:29 51°13.594 2°56.104 126.4   291 -999
2004-12-17 06:55:33 51°13.594 2°56.104 126.4   311 -999
2004-12-17 06:55:39 51°13.594 2°56.104 126.4   260 -999
2004-12-17 06:55:44 51°13.594 2°56.104 126.4   288 -999
2004-12-17 06:55:49 51°13.594 2°56.104 126.3   294 -999
2004-12-17 06:55:53 51°13.594 2°56.104 126.3   273 -999
2004-12-17 06:55:59 51°13.594 2°56.103 126.3   350 -999
2004-12-17 06:56:04 51°13.593 2°56.103 126.3   240 -999
2004-12-17 06:56:09 51°13.593 2°56.103 126.3   14 -999
2004-12-17 06:56:13 51°13.593 2°56.103 126.3   28 -999
2004-12-17 06:56:19 51°13.592 2°56.103 126.3   276 -999
2004-12-17 06:56:24 51°13.592 2°56.103 126.3   9 -999
2004-12-17 06:56:29 51°13.592 2°56.103 126.3   31 -999
2004-12-17 06:56:33 51°13.592 2°56.103 126.3   286 -999
2004-12-17 06:56:39 51°13.592 2°56.103 126.3   32 -999
2004-12-17 06:56:44 51°13.592 2°56.103 126.4   231 -999
2004-12-17 06:56:49 51°13.592 2°56.103 126.4   344 -999
2004-12-17 06:56:53 51°13.592 2°56.103 126.4   267 -999
2004-12-17 06:56:59 51°13.592 2°56.102 126.4   27 -999
2004-12-17 06:57:04 51°13.592 2°56.102 126.4   274 -999
2004-12-17 06:57:09 51°13.591 2°56.102 126.4   348 -999
2004-12-17 06:57:13 51°13.591 2°56.102 126.4   21 -999
2004-12-17 06:57:19 51°13.591 2°56.102 126.4   352 -999
2004-12-17 06:57:24 51°13.591 2°56.102 126.4   256 -999
2004-12-17 06:57:29 51°13.591 2°56.102 126.4   31 -999
2004-12-17 06:57:33 51°13.591 2°56.102 126.4   29 -999
2004-12-17 06:57:39 51°13.591 2°56.102 126.4   206 -999
2004-12-17 06:57:44 51°13.591 2°56.102 126.4   358 -999
2004-12-17 06:57:49 51°13.591 2°56.102 126.4   202 -999
2004-12-17 06:57:53 51°13.592 2°56.102 126.4   259 -999
2004-12-17 06:57:59 51°13.592 2°56.102 126.4   285 -999
2004-12-17 06:58:04 51°13.592 2°56.102 126.4   291 -999
2004-12-17 06:58:09 51°13.592 2°56.102 126.4   332 -999
2004-12-17 06:58:13 51°13.592 2°56.102 126.4   7 -999
2004-12-17 06:58:19 51°13.592 2°56.102 126.4   45 -999
2004-12-17 06:58:24 51°13.591 2°56.102 126.4   1 -999
2004-12-17 06:58:29 51°13.591 2°56.102 126.4   318 -999
2004-12-17 06:58:33 51°13.591 2°56.102 126.4   293 -999
2004-12-17 06:58:39 51°13.591 2°56.102 126.4   332 -999
2004-12-17 06:58:44 51°13.591 2°56.102 126.4   336 -999
2004-12-17 06:58:49 51°13.591 2°56.102 126.4   8 -999
2004-12-17 06:58:53 51°13.591 2°56.102 126.4   16 -999
2004-12-17 06:58:59 51°13.591 2°56.102 126.4   259 -999
2004-12-17 06:59:04 51°13.591 2°56.103 126.4   279 -999
2004-12-17 06:59:09 51°13.591 2°56.103 126.4   352 -999
2004-12-17 06:59:13 51°13.592 2°56.103 126.4   352 -999
2004-12-17 06:59:19 51°13.592 2°56.103 126.4   297 -999
2004-12-17 06:59:24 51°13.592 2°56.103 126.4   11 -999
2004-12-17 06:59:29 51°13.592 2°56.103 126.4   256 -999
2004-12-17 06:59:33 51°13.592 2°56.102 126.4   19 -999
2004-12-17 06:59:39 51°13.592 2°56.102 126.4   261 -999
2004-12-17 06:59:44 51°13.592 2°56.102 126.4   40 -999
2004-12-17 06:59:49 51°13.593 2°56.102 126.4   342 -999
2004-12-17 06:59:53 51°13.593 2°56.102 126.4   222 -999
2004-12-17 06:59:59 51°13.593 2°56.102 126.4   86 -999
2004-12-17 07:00:04 51°13.593 2°56.102 126.4   224 -999
2004-12-17 07:00:09 51°13.593 2°56.102 126.4   35 -999
2004-12-17 07:00:13 51°13.593 2°56.103 126.4   73 -999
2004-12-17 07:00:19 51°13.593 2°56.103 126.4   205 -999
2004-12-17 07:00:24 51°13.593 2°56.103 126.4   266 -999
2004-12-17 07:00:29 51°13.593 2°56.102 126.4   295 -999
2004-12-17 07:00:33 51°13.593 2°56.102 126.4   205 -999
2004-12-17 07:00:39 51°13.593 2°56.102 126.3   336 -999
2004-12-17 07:00:44 51°13.593 2°56.102 126.3   317 -999
2004-12-17 07:00:49 51°13.593 2°56.102 126.3   60 -999
2004-12-17 07:00:53 51°13.593 2°56.102 126.3   37 -999
2004-12-17 07:00:59 51°13.593 2°56.102 126.3   234 -999
2004-12-17 07:01:04 51°13.594 2°56.102 126.3     -999
2004-12-17 07:01:09 51°13.594 2°56.102 126.3   220 -999
2004-12-17 07:01:13 51°13.594 2°56.102 126.3   292 -999
2004-12-17 07:01:19 51°13.594 2°56.102 126.3   328 -999
2004-12-17 07:01:24 51°13.594 2°56.102 126.3   97 -999
2004-12-17 07:01:29 51°13.594 2°56.102 126.3   145 -999
2004-12-17 07:01:33 51°13.594 2°56.102 126.3   248 -999
2004-12-17 07:01:39 51°13.594 2°56.102 126.3   320 -999
2004-12-17 07:01:44 51°13.594 2°56.102 126.3   261 -999
2004-12-17 07:01:49 51°13.594 2°56.102 126.3   289 -999
2004-12-17 07:01:53 51°13.594 2°56.102 126.3   305 -999
2004-12-17 07:01:59 51°13.594 2°56.102 126.3   62 -999
2004-12-17 07:02:04 51°13.594 2°56.102 126.3   307 -999
2004-12-17 07:02:09 51°13.594 2°56.102 126.3   271 -999
2004-12-17 07:02:13 51°13.594 2°56.102 126.3   300 -999
2004-12-17 07:02:19 51°13.594 2°56.102 126.2   296 -999
2004-12-17 07:02:24 51°13.594 2°56.102 126.2   31 -999
2004-12-17 07:02:29 51°13.594 2°56.102 126.2   33 -999
2004-12-17 07:02:33 51°13.594 2°56.102 126.2   305 -999
2004-12-17 07:02:39 51°13.594 2°56.102 126.2   285 -999
2004-12-17 07:02:44 51°13.594 2°56.102 126.2   334 -999
2004-12-17 07:02:49 51°13.594 2°56.102 126.2   291 -999
2004-12-17 07:02:53 51°13.594 2°56.102 126.2   35 -999
2004-12-17 07:02:59 51°13.594 2°56.102 126.1   171 -999
2004-12-17 07:03:04 51°13.594 2°56.102 126.1   49 -999
2004-12-17 07:03:09 51°13.594 2°56.102 126.1   268 -999
2004-12-17 07:03:13 51°13.594 2°56.102 126.1   265 -999
2004-12-17 07:03:19 51°13.595 2°56.102 126.1   324 -999
2004-12-17 07:03:24 51°13.595 2°56.102 126.1   18 -999
2004-12-17 07:03:29 51°13.595 2°56.102 126.1   63 -999
2004-12-17 07:03:33 51°13.595 2°56.102 126.1   27 -999
2004-12-17 07:03:39 51°13.595 2°56.102 126.1   259 -999
2004-12-17 07:03:44 51°13.595 2°56.102 126.1   43 -999
2004-12-17 07:03:49 51°13.595 2°56.102 126   298 -999
2004-12-17 07:03:53 51°13.595 2°56.102 126   337 -999
2004-12-17 07:03:59 51°13.595 2°56.102 126   250 -999
2004-12-17 07:04:04 51°13.595 2°56.102 126   266 -999
2004-12-17 07:04:09 51°13.595 2°56.102 126   217 -999
2004-12-17 07:04:13 51°13.595 2°56.102 126   350 -999
2004-12-17 07:04:19 51°13.596 2°56.102 126   22 -999
2004-12-17 07:04:24 51°13.596 2°56.102 126   12 -999
2004-12-17 07:04:29 51°13.596 2°56.102 126   9 -999
2004-12-17 07:04:33 51°13.596 2°56.102 126   352 -999
2004-12-17 07:04:39 51°13.596 2°56.102 126   174 -999
2004-12-17 07:04:44 51°13.596 2°56.103 126   293 -999
2004-12-17 07:04:49 51°13.596 2°56.102 126   232 -999
2004-12-17 07:04:53 51°13.596 2°56.102 126   331 -999
2004-12-17 07:04:59 51°13.596 2°56.102 126   355 -999
2004-12-17 07:05:04 51°13.596 2°56.102 126   209 -999
2004-12-17 07:05:09 51°13.596 2°56.102 126   105 -999
2004-12-17 07:05:13 51°13.596 2°56.102 126   357 -999
2004-12-17 07:05:19 51°13.596 2°56.102 126   22 -999
2004-12-17 07:05:24 51°13.596 2°56.102 126   315 -999
2004-12-17 07:05:29 51°13.596 2°56.102 126   222 -999
2004-12-17 07:05:33 51°13.597 2°56.102 126   15 -999
2004-12-17 07:05:39 51°13.597 2°56.102 126.1   181 -999
2004-12-17 07:05:44 51°13.597 2°56.102 126.1   47 -999
2004-12-17 07:05:49 51°13.597 2°56.102 126.1   240 -999
2004-12-17 07:05:53 51°13.597 2°56.102 126.1   244 -999
2004-12-17 07:05:59 51°13.597 2°56.102 126.1   349 -999
2004-12-17 07:06:04 51°13.597 2°56.102 126.1   178 -999
2004-12-17 07:06:09 51°13.597 2°56.102 126.1   142 -999
2004-12-17 07:06:13 51°13.597 2°56.102 126.1   46 -999
2004-12-17 07:06:19 51°13.597 2°56.102 126.1   236 -999
2004-12-17 07:06:24 51°13.597 2°56.102 126.1   3 -999
2004-12-17 07:06:29 51°13.597 2°56.102 126.1   220 -999
2004-12-17 07:06:33 51°13.597 2°56.102 126.1   60 -999
2004-12-17 07:06:39 51°13.597 2°56.102 126.1   189 -999
2004-12-17 07:06:44 51°13.597 2°56.102 126.1   318 -999
2004-12-17 07:06:49 51°13.596 2°56.102 126.1   242 -999
2004-12-17 07:06:53 51°13.596 2°56.102 126.1   228 -999
2004-12-17 07:06:59 51°13.596 2°56.101 126.1   329 -999
2004-12-17 07:07:04 51°13.596 2°56.101 126.1   350 -999
2004-12-17 07:07:09 51°13.596 2°56.101 126.1   4 -999
2004-12-17 07:07:14 51°13.596 2°56.101 126.1   55 -999
2004-12-17 07:07:19 51°13.596 2°56.101 126.1   296 -999
2004-12-17 07:07:24 51°13.596 2°56.101 126.1   306 -999
2004-12-17 07:07:29 51°13.596 2°56.101 126.1   310 -999
2004-12-17 07:07:33 51°13.596 2°56.101 126.1   245 -999
2004-12-17 07:07:39 51°13.597 2°56.101 126.1   94 -999
2004-12-17 07:07:44 51°13.596 2°56.101 126.1   186 -999
2004-12-17 07:07:49 51°13.596 2°56.101 126.1   37 -999
2004-12-17 07:07:53 51°13.596 2°56.101 126.1   294 -999
2004-12-17 07:07:59 51°13.596 2°56.101 126.1   278 -999
2004-12-17 07:08:04 51°13.597 2°56.101 126.1   15 -999
2004-12-17 07:08:09 51°13.597 2°56.101 126.1   216 -999
2004-12-17 07:08:13 51°13.597 2°56.101 126.1   34 -999
2004-12-17 07:08:19 51°13.597 2°56.101 126.1   205 -999
2004-12-17 07:08:24 51°13.597 2°56.101 126.1   222 -999
2004-12-17 07:08:29 51°13.597 2°56.101 126.1   238 -999
2004-12-17 07:08:33 51°13.597 2°56.101 126.1   232 -999
2004-12-17 07:08:39 51°13.597 2°56.101 126.1   354 -999
2004-12-17 07:08:44 51°13.597 2°56.101 126.1   181 -999
2004-12-17 07:08:49 51°13.596 2°56.101 126.1   15 -999
2004-12-17 07:08:54 51°13.596 2°56.101 126.1   7 -999
2004-12-17 07:08:59 51°13.597 2°56.101 126.1   216 -999
2004-12-17 07:09:04 51°13.597 2°56.101 126.1   342 -999
2004-12-17 07:09:09 51°13.597 2°56.101 126.1   221 -999
2004-12-17 07:09:14 51°13.597 2°56.101 126.1   234 -999
2004-12-17 07:09:19 51°13.597 2°56.101 126.1   243 -999
2004-12-17 07:09:24 51°13.596 2°56.101 126.1   299 -999
2004-12-17 07:09:29 51°13.596 2°56.101 126.1   337 -999
2004-12-17 07:09:33 51°13.596 2°56.101 126.1   82 -999
2004-12-17 07:09:39 51°13.596 2°56.101 126.1   134 -999
2004-12-17 07:09:44 51°13.596 2°56.101 126.1   66 -999
2004-12-17 07:09:49 51°13.596 2°56.101 126.1   285 -999
2004-12-17 07:09:53 51°13.596 2°56.101 126.1   259 -999
2004-12-17 07:09:59 51°13.596 2°56.101 126.1   267 -999
2004-12-17 07:10:04 51°13.596 2°56.101 126.1   259 -999
2004-12-17 07:10:09 51°13.596 2°56.101 126.1   247 -999
2004-12-17 07:10:13 51°13.596 2°56.101 126.1   208 -999
2004-12-17 07:10:19 51°13.596 2°56.101 126.1   71 -999
2004-12-17 07:10:24 51°13.596 2°56.101 126.1   178 -999
2004-12-17 07:10:29 51°13.596 2°56.102 126.1   37 -999
2004-12-17 07:10:34 51°13.596 2°56.102 126.1   269 -999
2004-12-17 07:10:39 51°13.596 2°56.102 126.1   242 -999
2004-12-17 07:10:44 51°13.596 2°56.102 126.2   291 -999
2004-12-17 07:10:49 51°13.596 2°56.101 126.2   237 -999
2004-12-17 07:10:54 51°13.596 2°56.101 126.2   269 -999
2004-12-17 07:10:59 51°13.596 2°56.101 126.2   1 -999
2004-12-17 07:11:04 51°13.596 2°56.101 126.2   251 -999
2004-12-17 07:11:09 51°13.596 2°56.101 126.2   301 -999
2004-12-17 07:11:13 51°13.596 2°56.101 126.2   244 -999
2004-12-17 07:11:19 51°13.596 2°56.101 126.1   283 -999
2004-12-17 07:11:24 51°13.596 2°56.101 126.1   190 -999
2004-12-17 07:11:29 51°13.596 2°56.101 126.1   195 -999
2004-12-17 07:11:33 51°13.596 2°56.101 126.1   221 -999
2004-12-17 07:11:39 51°13.596 2°56.101 126.1   324 -999
2004-12-17 07:11:44 51°13.596 2°56.101 126.1   243 -999
2004-12-17 07:11:49 51°13.596 2°56.101 126.1   279 -999
2004-12-17 07:11:53 51°13.596 2°56.102 126.1   219 -999
2004-12-17 07:11:59 51°13.596 2°56.102 126.1   316 -999
2004-12-17 07:12:04 51°13.596 2°56.102 126.1   349 -999
2004-12-17 07:12:09 51°13.596 2°56.102 126.1   216 -999
2004-12-17 07:12:13 51°13.596 2°56.102 126.1   94 -999
2004-12-17 07:12:19 51°13.596 2°56.102 126.1   154 -999
2004-12-17 07:12:24 51°13.596 2°56.102 126.1   278 -999
2004-12-17 07:12:29 51°13.596 2°56.102 126.1   271 -999
2004-12-17 07:12:34 51°13.596 2°56.102 126.1   247 -999
2004-12-17 07:12:39 51°13.596 2°56.102 126.1   235 -999
2004-12-17 07:12:44 51°13.596 2°56.101 126.1   25 -999
2004-12-17 07:12:49 51°13.596 2°56.101 126.1   130 -999
2004-12-17 07:12:54 51°13.596 2°56.101 126.1   204 -999
2004-12-17 07:12:59 51°13.596 2°56.102 126.1   89 -999
2004-12-17 07:13:04 51°13.596 2°56.102 126.1   276 -999
2004-12-17 07:13:09 51°13.596 2°56.102 126.1   297 -999
2004-12-17 07:13:13 51°13.596 2°56.102 126.1   1 -999
2004-12-17 07:13:19 51°13.596 2°56.102 126.1   20 -999
2004-12-17 07:13:24 51°13.596 2°56.102 126.1   319 -999
2004-12-17 07:13:29 51°13.596 2°56.102 126.1   284 -999
2004-12-17 07:13:33 51°13.596 2°56.102 126.1   207 -999
2004-12-17 07:13:39 51°13.596 2°56.102 126.1   74 -999
2004-12-17 07:13:44 51°13.596 2°56.102 126.1   213 -999
2004-12-17 07:13:49 51°13.596 2°56.102 126.1   238 -999
2004-12-17 07:13:53 51°13.596 2°56.102 126.1   286 -999
2004-12-17 07:13:59 51°13.596 2°56.102 126.1   284 -999
2004-12-17 07:14:04 51°13.596 2°56.102 126.1   274 -999
2004-12-17 07:14:09 51°13.596 2°56.102 126.1   131 -999
2004-12-17 07:14:14 51°13.596 2°56.102 126.1   103 -999
2004-12-17 07:14:19 51°13.596 2°56.102 126.1   166 -999
2004-12-17 07:14:24 51°13.596 2°56.102 126.1   276 -999
2004-12-17 07:14:29 51°13.596 2°56.102 126.1   262 -999
2004-12-17 07:14:33 51°13.596 2°56.102 126.1   317 -999
2004-12-17 07:14:39 51°13.596 2°56.102 126.1   236 -999
2004-12-17 07:14:44 51°13.596 2°56.102 126.1   245 -999
2004-12-17 07:14:49 51°13.596 2°56.102 126.1   38 -999
2004-12-17 07:14:53 51°13.596 2°56.102 126.1   54 -999
2004-12-17 07:14:59 51°13.596 2°56.102 126.2   215 -999
2004-12-17 07:15:04 51°13.596 2°56.102 126.2   94 -999
2004-12-17 07:15:09 51°13.596 2°56.102 126.2   236 -999
2004-12-17 07:15:13 51°13.596 2°56.102 126.2   270 -999
2004-12-17 07:15:19 51°13.596 2°56.102 126.2   325 -999
2004-12-17 07:15:24 51°13.596 2°56.102 126.2   20 -999
2004-12-17 07:15:29 51°13.596 2°56.102 126.2   54 -999
2004-12-17 07:15:33 51°13.596 2°56.102 126.2   332 -999
2004-12-17 07:15:39 51°13.596 2°56.102 126.2   18 -999
2004-12-17 07:15:44 51°13.596 2°56.102 126.1   279 -999
2004-12-17 07:15:49 51°13.596 2°56.102 126.1   296 -999
2004-12-17 07:15:54 51°13.596 2°56.102 126.1   304 -999
2004-12-17 07:15:59 51°13.596 2°56.102 126.1   357 -999
2004-12-17 07:16:04 51°13.596 2°56.102 126.1   261 -999
2004-12-17 07:16:09 51°13.596 2°56.102 126   358 -999
2004-12-17 07:16:13 51°13.596 2°56.101 126   263 -999
2004-12-17 07:16:19 51°13.596 2°56.101 126   356 -999
2004-12-17 07:16:24 51°13.596 2°56.101 125.9   339 -999
2004-12-17 07:16:29 51°13.596 2°56.101 125.9   3 -999
2004-12-17 07:16:33 51°13.596 2°56.101 125.9   5 -999
2004-12-17 07:16:39 51°13.596 2°56.101 125.9   279 -999
2004-12-17 07:16:44 51°13.596 2°56.101 125.9   1 -999
2004-12-17 07:16:49 51°13.596 2°56.101 125.9   247 -999
2004-12-17 07:16:53 51°13.596 2°56.101 125.9   134 -999
2004-12-17 07:16:59 51°13.596 2°56.101 125.9   48 -999
2004-12-17 07:17:04 51°13.596 2°56.101 125.9   294 -999
2004-12-17 07:17:09 51°13.596 2°56.101 125.9   294 -999
2004-12-17 07:17:13 51°13.596 2°56.101 125.9   276 -999
2004-12-17 07:17:19 51°13.596 2°56.101 126   359 -999
2004-12-17 07:17:24 51°13.596 2°56.101 126   248 -999
2004-12-17 07:17:29 51°13.596 2°56.101 126   333 -999
2004-12-17 07:17:34 51°13.596 2°56.101 126   332 -999
2004-12-17 07:17:39 51°13.596 2°56.101 126   301 -999
2004-12-17 07:17:44 51°13.596 2°56.101 126   218 -999
2004-12-17 07:17:49 51°13.597 2°56.101 126   237 -999
2004-12-17 07:17:53 51°13.597 2°56.101 126   358 -999
2004-12-17 07:17:59 51°13.597 2°56.101 126   260 -999
2004-12-17 07:18:04 51°13.596 2°56.101 126   13 -999
2004-12-17 07:18:09 51°13.596 2°56.102 125.9   212 -999
2004-12-17 07:18:13 51°13.596 2°56.102 125.9   258 -999
2004-12-17 07:18:19 51°13.596 2°56.102 125.9   236 -999
2004-12-17 07:18:24 51°13.596 2°56.102 125.9   223 -999
2004-12-17 07:18:29 51°13.596 2°56.102 125.9   244 -999
2004-12-17 07:18:33 51°13.596 2°56.102 125.9   233 -999
2004-12-17 07:18:39 51°13.596 2°56.102 125.9   335 -999
2004-12-17 07:18:44 51°13.596 2°56.102 125.9   256 -999
2004-12-17 07:18:49 51°13.596 2°56.102 125.9   4 -999
2004-12-17 07:18:53 51°13.596 2°56.102 125.8   324 -999
2004-12-17 07:18:59 51°13.596 2°56.102 125.8   348 -999
2004-12-17 07:19:04 51°13.596 2°56.102 125.8   46 -999
2004-12-17 07:19:09 51°13.596 2°56.102 125.8   278 -999
2004-12-17 07:19:14 51°13.596 2°56.102 125.8   292 -999
2004-12-17 07:19:19 51°13.596 2°56.102 125.8   253 -999
2004-12-17 07:19:24 51°13.596 2°56.102 125.8   345 -999
2004-12-17 07:19:29 51°13.596 2°56.102 125.8   314 -999
2004-12-17 07:19:33 51°13.596 2°56.102 125.7   232 -999
2004-12-17 07:19:39 51°13.596 2°56.102 125.7   343 -999
2004-12-17 07:19:44 51°13.596 2°56.102 125.7   355 -999
2004-12-17 07:19:49 51°13.596 2°56.102 125.7   292 -999
2004-12-17 07:19:53 51°13.596 2°56.102 125.7   346 -999
2004-12-17 07:19:59 51°13.596 2°56.102 125.7   347 -999
2004-12-17 07:20:04 51°13.596 2°56.102 125.7   303 -999
2004-12-17 07:20:09 51°13.596 2°56.102 125.7   303 -999
2004-12-17 07:20:13 51°13.596 2°56.102 125.7   123 -999
2004-12-17 07:20:19 51°13.596 2°56.102 125.7   346 -999
2004-12-17 07:20:24 51°13.596 2°56.102 125.7   16 -999
2004-12-17 07:20:29 51°13.596 2°56.102 125.7   205 -999
2004-12-17 07:20:34 51°13.596 2°56.102 125.7   337 -999
2004-12-17 07:20:39 51°13.596 2°56.102 125.7   238 -999
2004-12-17 07:20:44 51°13.596 2°56.102 125.7   349 -999
2004-12-17 07:20:49 51°13.596 2°56.102 125.7   238 -999
2004-12-17 07:20:54 51°13.596 2°56.102 125.7   277 -999
2004-12-17 07:20:59 51°13.596 2°56.102 125.7   231 -999
2004-12-17 07:21:04 51°13.595 2°56.102 125.7   238 -999
2004-12-17 07:21:09 51°13.595 2°56.102 125.7   42 -999
2004-12-17 07:21:13 51°13.595 2°56.102 125.7   200 -999
2004-12-17 07:21:19 51°13.595 2°56.102 125.7   359 -999
2004-12-17 07:21:24 51°13.596 2°56.102 125.7   241 -999
2004-12-17 07:21:29 51°13.596 2°56.102 125.7   329 -999
2004-12-17 07:21:33 51°13.596 2°56.102 125.7   197 -999
2004-12-17 07:21:39 51°13.596 2°56.102 125.7   102 -999
2004-12-17 07:21:44 51°13.596 2°56.102 125.7   59 -999
2004-12-17 07:21:49 51°13.596 2°56.102 125.8   160 -999
2004-12-17 07:21:53 51°13.596 2°56.102 125.8   27 -999
2004-12-17 07:21:59 51°13.596 2°56.102 125.8   221 -999
2004-12-17 07:22:04 51°13.596 2°56.102 125.8   27 -999
2004-12-17 07:22:09 51°13.596 2°56.102 125.9   200 -999
2004-12-17 07:22:13 51°13.596 2°56.102 125.9   107 -999
2004-12-17 07:22:19 51°13.596 2°56.101 125.9   321 -999
2004-12-17 07:22:24 51°13.596 2°56.101 125.9   265 -999
2004-12-17 07:22:29 51°13.596 2°56.101 125.9   328 -999
2004-12-17 07:22:34 51°13.596 2°56.101 125.9   252 -999
2004-12-17 07:22:39 51°13.596 2°56.101 125.9   339 -999
2004-12-17 07:22:44 51°13.596 2°56.101 125.9   251 -999
2004-12-17 07:22:49 51°13.596 2°56.101 125.9   21 -999
2004-12-17 07:22:53 51°13.595 2°56.101 125.9   220 -999
2004-12-17 07:22:59 51°13.596 2°56.101 125.9   34 -999
2004-12-17 07:23:04 51°13.595 2°56.101 125.9   236 -999
2004-12-17 07:23:09 51°13.595 2°56.102 125.9   319 -999
2004-12-17 07:23:13 51°13.595 2°56.102 125.9   346 -999
2004-12-17 07:23:19 51°13.595 2°56.102 125.9   7 -999
2004-12-17 07:23:24 51°13.595 2°56.102 125.9   11 -999
2004-12-17 07:23:29 51°13.595 2°56.102 125.9   235 -999
2004-12-17 07:23:33 51°13.595 2°56.101 125.9   27 -999
2004-12-17 07:23:39 51°13.595 2°56.101 125.9   246 -999
2004-12-17 07:23:44 51°13.595 2°56.101 125.9   285 -999
2004-12-17 07:23:49 51°13.595 2°56.101 125.9   283 -999
2004-12-17 07:23:54 51°13.595 2°56.101 125.9   286 -999
2004-12-17 07:23:59 51°13.595 2°56.101 125.9   230 -999
2004-12-17 07:24:04 51°13.595 2°56.101 125.9   220 -999
2004-12-17 07:24:09 51°13.595 2°56.101 125.9   56 -999
2004-12-17 07:24:14 51°13.595 2°56.101 125.9   213 -999
2004-12-17 07:24:19 51°13.595 2°56.101 125.9   25 -999
2004-12-17 07:24:24 51°13.595 2°56.101 125.9   321 -999
2004-12-17 07:24:29 51°13.595 2°56.101 125.9   250 -999
2004-12-17 07:24:33 51°13.595 2°56.101 125.9   264 -999
2004-12-17 07:24:39 51°13.595 2°56.101 125.8   307 -999
2004-12-17 07:24:44 51°13.595 2°56.101 125.8   231 -999
2004-12-17 07:24:49 51°13.595 2°56.102 125.8   111 -999
2004-12-17 07:24:53 51°13.595 2°56.102 125.8   208 -999
2004-12-17 07:24:59 51°13.595 2°56.101 125.8   242 -999
2004-12-17 07:25:04 51°13.595 2°56.101 125.8   197 -999
2004-12-17 07:25:09 51°13.595 2°56.101 125.8   88 -999
2004-12-17 07:25:13 51°13.595 2°56.102 125.8   155 -999
2004-12-17 07:25:19 51°13.595 2°56.102 125.9   62 -999
2004-12-17 07:25:24 51°13.595 2°56.102 126.1   172 -999
2004-12-17 07:25:29 51°13.595 2°56.102 126.1   314 -999
2004-12-17 07:25:34 51°13.595 2°56.102 126.2   243 -999
2004-12-17 07:25:39 51°13.595 2°56.102 126.2   326 -999
2004-12-17 07:25:44 51°13.595 2°56.102 126.1   291 -999
2004-12-17 07:25:49 51°13.595 2°56.102 126.1   17 -999
2004-12-17 07:25:54 51°13.595 2°56.102 126.1   62 -999
2004-12-17 07:25:59 51°13.595 2°56.102 126.1   130 -999
2004-12-17 07:26:04 51°13.595 2°56.102 126.1   33 -999
2004-12-17 07:26:09 51°13.595 2°56.102 126.1   257 -999
2004-12-17 07:26:14 51°13.595 2°56.102 126.1   270 -999
2004-12-17 07:26:19 51°13.595 2°56.102 126.1   255 -999
2004-12-17 07:26:24 51°13.595 2°56.102 126.1   265 -999
2004-12-17 07:26:29 51°13.595 2°56.102 126.1   54 -999
2004-12-17 07:26:33 51°13.595 2°56.102 126.1   143 -999
2004-12-17 07:26:39 51°13.595 2°56.102 126.1   18 -999
2004-12-17 07:26:42 51°13.595 2°56.102 126.1   253 -999
2004-12-17 07:26:49 51°13.595 2°56.102 126.1   295 -999
2004-12-17 07:26:53 51°13.595 2°56.102 126.1   263 -999
2004-12-17 07:26:59 51°13.595 2°56.102 126.1   304 -999
2004-12-17 07:27:04 51°13.595 2°56.102 126.1   240 -999
2004-12-17 07:27:09 51°13.595 2°56.102 126.1   138 -999
2004-12-17 07:27:14 51°13.595 2°56.102 126.1   56 -999
2004-12-17 07:27:19 51°13.595 2°56.102 126.1   247 -999
2004-12-17 07:27:24 51°13.595 2°56.102 126.1   355 -999
2004-12-17 07:27:29 51°13.595 2°56.102 126.1   242 -999
2004-12-17 07:27:34 51°13.595 2°56.102 126.1   338 -999
2004-12-17 07:27:39 51°13.595 2°56.102 126.1   241 -999
2004-12-17 07:27:44 51°13.595 2°56.102 126.1   255 -999
2004-12-17 07:27:49 51°13.594 2°56.102 126.1   294 -999
2004-12-17 07:27:54 51°13.594 2°56.102 126.1   218 -999
2004-12-17 07:27:59 51°13.594 2°56.102 126.1   342 -999
2004-12-17 07:28:04 51°13.594 2°56.102 126.1   230 -999
2004-12-17 07:28:09 51°13.594 2°56.102 126.1   327 -999
2004-12-17 07:28:13 51°13.594 2°56.102 126.1   237 -999
2004-12-17 07:28:19 51°13.594 2°56.102 126.1   7 -999
2004-12-17 07:28:24 51°13.594 2°56.102 126.1   260 -999
2004-12-17 07:28:29 51°13.594 2°56.102 126.1   267 -999
2004-12-17 07:28:33 51°13.594 2°56.102 126.1   248 -999
2004-12-17 07:28:39 51°13.595 2°56.102 126   255 -999
2004-12-17 07:28:44 51°13.595 2°56.102 126   263 -999
2004-12-17 07:28:49 51°13.595 2°56.101 126   327 -999
2004-12-17 07:28:54 51°13.595 2°56.102 126   341 -999
2004-12-17 07:28:59 51°13.595 2°56.101 126   346 -999
2004-12-17 07:29:04 51°13.595 2°56.102 126   16 -999
2004-12-17 07:29:09 51°13.595 2°56.102 126   242 -999
2004-12-17 07:29:14 51°13.595 2°56.102 126   273 -999
2004-12-17 07:29:19 51°13.595 2°56.102 126   301 -999
2004-12-17 07:29:24 51°13.595 2°56.102 126   233 -999
2004-12-17 07:29:29 51°13.596 2°56.102 126   50 -999
2004-12-17 07:29:34 51°13.596 2°56.101 126   144 -999
2004-12-17 07:29:39 51°13.596 2°56.101 126   79 -999
2004-12-17 07:29:44 51°13.596 2°56.101 126   310 -999
2004-12-17 07:29:49 51°13.596 2°56.101 126   223 -999
2004-12-17 07:29:53 51°13.596 2°56.101 126   342 -999
2004-12-17 07:29:59 51°13.596 2°56.101 126   241 -999
2004-12-17 07:30:04 51°13.596 2°56.101 126.1   9 -999
2004-12-17 07:30:09 51°13.596 2°56.101 126.1   209 -999
2004-12-17 07:30:13 51°13.596 2°56.101 126.1   330 -999
2004-12-17 07:30:19 51°13.596 2°56.101 126.1   299 -999
2004-12-17 07:30:24 51°13.596 2°56.101 126.1   302 -999
2004-12-17 07:30:29 51°13.596 2°56.101 126.1   240 -999
2004-12-17 07:30:34 51°13.596 2°56.101 126.1   35 -999
2004-12-17 07:30:39 51°13.596 2°56.101 126.1   261 -999
2004-12-17 07:30:44 51°13.596 2°56.101 126.1   151 -999
2004-12-17 07:30:49 51°13.596 2°56.101 126.1   53 -999
2004-12-17 07:30:54 51°13.596 2°56.101 126.1   252 -999
2004-12-17 07:30:59 51°13.596 2°56.101 126.1   288 -999
2004-12-17 07:31:04 51°13.596 2°56.101 126.1   278 -999
2004-12-17 07:31:09 51°13.596 2°56.102 126.1   263 -999
2004-12-17 07:31:14 51°13.596 2°56.102 126.1   353 -999
2004-12-17 07:31:19 51°13.596 2°56.102 126.1   287 -999
2004-12-17 07:31:24 51°13.596 2°56.102 126   340 -999
2004-12-17 07:31:29 51°13.596 2°56.102 126   279 -999
2004-12-17 07:31:33 51°13.596 2°56.102 126   59 -999
2004-12-17 07:31:39 51°13.596 2°56.102 126   243 -999
2004-12-17 07:31:44 51°13.595 2°56.101 126   337 -999
2004-12-17 07:31:49 51°13.595 2°56.101 126   253 -999
2004-12-17 07:31:54 51°13.595 2°56.101 126   244 -999
2004-12-17 07:31:59 51°13.595 2°56.101 126   226 -999
2004-12-17 07:32:04 51°13.595 2°56.101 126   236 -999
2004-12-17 07:32:09 51°13.595 2°56.101 126   307 -999
2004-12-17 07:32:14 51°13.595 2°56.101 126   24 -999
2004-12-17 07:32:19 51°13.595 2°56.101 125.9   318 -999
2004-12-17 07:32:24 51°13.595 2°56.101 125.9   353 -999
2004-12-17 07:32:29 51°13.595 2°56.101 125.9   168 -999
2004-12-17 07:32:34 51°13.595 2°56.101 125.9   28 -999
2004-12-17 07:32:39 51°13.595 2°56.101 125.9   257 -999
2004-12-17 07:32:44 51°13.595 2°56.101 125.9   3 -999
2004-12-17 07:32:49 51°13.595 2°56.101 125.9   198 -999
2004-12-17 07:32:54 51°13.595 2°56.101 125.9   249 -999
2004-12-17 07:32:59 51°13.595 2°56.102 125.9   341 -999
2004-12-17 07:33:04 51°13.595 2°56.102 125.9   271 -999
2004-12-17 07:33:09 51°13.595 2°56.102 125.9   309 -999
2004-12-17 07:33:14 51°13.595 2°56.102 125.9   329 -999
2004-12-17 07:33:19 51°13.595 2°56.102 125.9   243 -999
2004-12-17 07:33:24 51°13.595 2°56.102 125.9   162 -999
2004-12-17 07:33:29 51°13.595 2°56.102 125.8   193 -999
2004-12-17 07:33:33 51°13.595 2°56.102 125.8   228 -999
2004-12-17 07:33:39 51°13.595 2°56.102 125.8   209 -999
2004-12-17 07:33:44 51°13.595 2°56.102 125.8   269 -999
2004-12-17 07:33:49 51°13.595 2°56.102 125.8   247 -999
2004-12-17 07:33:54 51°13.595 2°56.102 125.9   296 -999
2004-12-17 07:33:59 51°13.595 2°56.102 125.9   22 -999
2004-12-17 07:34:04 51°13.595 2°56.102 125.9   27 -999
2004-12-17 07:34:09 51°13.595 2°56.102 125.9   280 -999
2004-12-17 07:34:14 51°13.595 2°56.102 125.9   222 -999
2004-12-17 07:34:19 51°13.595 2°56.102 125.9   255 -999
2004-12-17 07:34:24 51°13.595 2°56.102 126   283 -999
2004-12-17 07:34:29 51°13.595 2°56.102 126   230 -999
2004-12-17 07:34:34 51°13.595 2°56.102 126   71 -999
2004-12-17 07:34:39 51°13.596 2°56.102 126   182 -999
2004-12-17 07:34:44 51°13.596 2°56.102 126   273 -999
2004-12-17 07:34:49 51°13.596 2°56.102 126   255 -999
2004-12-17 07:34:54 51°13.596 2°56.102 126   257 -999
2004-12-17 07:34:59 51°13.596 2°56.102 126   261 -999
2004-12-17 07:35:04 51°13.596 2°56.102 126   346 -999
2004-12-17 07:35:09 51°13.596 2°56.102 126   25 -999
2004-12-17 07:35:14 51°13.596 2°56.102 126   135 -999
2004-12-17 07:35:19 51°13.596 2°56.102 126   240 -999
2004-12-17 07:35:24 51°13.596 2°56.102 126   284 -999
2004-12-17 07:35:29 51°13.596 2°56.102 126   285 -999
2004-12-17 07:35:34 51°13.596 2°56.102 126   138 -999
2004-12-17 07:35:39 51°13.596 2°56.102 126.1   211 -999
2004-12-17 07:35:44 51°13.596 2°56.102 126.1   185 -999
2004-12-17 07:35:49 51°13.596 2°56.102 126.1   260 -999
2004-12-17 07:35:54 51°13.596 2°56.102 126.1   243 -999
2004-12-17 07:35:59 51°13.596 2°56.102 126.1   321 -999
2004-12-17 07:36:04 51°13.596 2°56.102 126.1   202 -999
2004-12-17 07:36:09 51°13.596 2°56.102 126.1   77 -999
2004-12-17 07:36:14 51°13.596 2°56.102 126.1   45 -999
2004-12-17 07:36:19 51°13.596 2°56.103 126.1   200 -999
2004-12-17 07:36:22 51°13.596 2°56.103 126.2   216 8.8
2004-12-17 07:36:25 51°13.596 2°56.103 126.2   88 8.9
2004-12-17 07:36:31 51°13.596 2°56.103 126.2   88 8.9
2004-12-17 07:36:35 51°13.596 2°56.103 126.2   296 8.9
2004-12-17 07:36:40 51°13.596 2°56.103 126.2   223 8.9
2004-12-17 07:36:46 51°13.596 2°56.103 126.2   57 8.9
2004-12-17 07:36:51 51°13.596 2°56.103 126.2   117 8.9
2004-12-17 07:36:55 51°13.596 2°56.103 126.2   358 8.9
2004-12-17 07:37:00 51°13.596 2°56.103 126.2   350 8.9
2004-12-17 07:37:05 51°13.596 2°56.103 126.2   228 8.9
2004-12-17 07:37:11 51°13.596 2°56.103 126.2   248 8.9
2004-12-17 07:37:15 51°13.596 2°56.103 126.2   186 8.9
2004-12-17 07:37:19 51°13.596 2°56.103 126.2   189 8.9
2004-12-17 07:37:24 51°13.596 2°56.103 126.2   241 8.8
2004-12-17 07:37:31 51°13.596 2°56.103 126.2   11 8.9
2004-12-17 07:37:35 51°13.596 2°56.103 126.2   4 8.9
2004-12-17 07:37:40 51°13.595 2°56.103 126.2   266 8.9
2004-12-17 07:37:45 51°13.596 2°56.103 126.2   327 8.9
2004-12-17 07:37:51 51°13.595 2°56.103 126.2   268 8.9
2004-12-17 07:37:55 51°13.595 2°56.103 126.2   109 8.8
2004-12-17 07:37:59 51°13.595 2°56.103 126.2   229 8.9
2004-12-17 07:38:04 51°13.595 2°56.103 126.2   54 8.9
2004-12-17 07:38:11 51°13.595 2°56.103 126.2   352 8.8
2004-12-17 07:38:15 51°13.595 2°56.103 126.2   262 8.8
2004-12-17 07:38:20 51°13.595 2°56.102 126.2   211 8.8
2004-12-17 07:38:25 51°13.595 2°56.102 126.2   332 8.9
2004-12-17 07:38:31 51°13.595 2°56.102 126.2   248 8.8
2004-12-17 07:38:35 51°13.595 2°56.102 126.2   323 8.8
2004-12-17 07:38:39 51°13.595 2°56.102 126.2   88 8.8
2004-12-17 07:38:44 51°13.595 2°56.102 126.2   204 8.8
2004-12-17 07:38:51 51°13.595 2°56.102 126.2   262 8.8
2004-12-17 07:38:55 51°13.595 2°56.102 126.2   273 8.8
2004-12-17 07:39:00 51°13.595 2°56.102 126.2   288 8.8
2004-12-17 07:39:05 51°13.595 2°56.102 126.2   329 8.8
2004-12-17 07:39:11 51°13.595 2°56.102 126.2   146 8.9
2004-12-17 07:39:15 51°13.595 2°56.102 126.2   214 8.8
2004-12-17 07:39:21 51°13.595 2°56.102 126.2   344 8.8
2004-12-17 07:39:25 51°13.595 2°56.102 126.2   251 8.8
2004-12-17 07:39:31 51°13.595 2°56.102 126.2   2 8.8
2004-12-17 07:39:35 51°13.595 2°56.102 126.2   183 8.8
2004-12-17 07:39:40 51°13.595 2°56.102 126.3   42 8.8
2004-12-17 07:39:45 51°13.595 2°56.102 126.3   196 8.8
2004-12-17 07:39:51 51°13.595 2°56.102 126.3   349 8.8
2004-12-17 07:39:55 51°13.595 2°56.102 126.3   221 8.8
2004-12-17 07:39:59 51°13.595 2°56.102 126.4   3 8.8
2004-12-17 07:40:05 51°13.595 2°56.103 126.4   232 8.8
2004-12-17 07:40:11 51°13.595 2°56.103 126.4   179 8.8
2004-12-17 07:40:15 51°13.595 2°56.103 126.4   161 8.8
2004-12-17 07:40:20 51°13.595 2°56.102 126.4   244 8.8
2004-12-17 07:40:25 51°13.595 2°56.102 126.4   252 8.8
2004-12-17 07:40:31 51°13.595 2°56.102 126.4   268 8.8
2004-12-17 07:40:35 51°13.595 2°56.102 126.4   181 8.8
2004-12-17 07:40:39 51°13.595 2°56.103 126.4   60 8.8
2004-12-17 07:40:45 51°13.595 2°56.103 126.4   141 8.8
2004-12-17 07:40:51 51°13.595 2°56.103 126.4   333 8.8
2004-12-17 07:40:55 51°13.595 2°56.103 126.4   265 8.8
2004-12-17 07:41:00 51°13.595 2°56.103 126.4   297 8.8
2004-12-17 07:41:05 51°13.595 2°56.103 126.4   260 8.8
2004-12-17 07:41:11 51°13.595 2°56.103 126.4   267 8.8
2004-12-17 07:41:15 51°13.595 2°56.103 126.4   209 8.8
2004-12-17 07:41:21 51°13.595 2°56.103 126.4   236 8.8
2004-12-17 07:41:25 51°13.595 2°56.103 126.4   261 8.8
2004-12-17 07:41:31 51°13.595 2°56.103 126.4   298 8.8
2004-12-17 07:41:35 51°13.595 2°56.103 126.4   279 8.8
2004-12-17 07:41:40 51°13.595 2°56.103 126.4   265 8.8
2004-12-17 07:41:45 51°13.595 2°56.103 126.4   354 8.8
2004-12-17 07:41:51 51°13.595 2°56.103 126.4   302 8.8
2004-12-17 07:41:55 51°13.595 2°56.103 126.4   256 8.7
2004-12-17 07:41:59 51°13.595 2°56.103 126.4   47 8.7
2004-12-17 07:42:05 51°13.595 2°56.103 126.4   194 8.7
2004-12-17 07:42:11 51°13.595 2°56.103 126.4   29 8.7
2004-12-17 07:42:15 51°13.595 2°56.103 126.4   276 8.7
2004-12-17 07:42:20 51°13.595 2°56.103 126.4   298 8.7
2004-12-17 07:42:25 51°13.595 2°56.103 126.4   309 8.7
2004-12-17 07:42:31 51°13.595 2°56.103 126.3   324 8.7
2004-12-17 07:42:35 51°13.595 2°56.103 126.3   335 8.7
2004-12-17 07:42:41 51°13.595 2°56.103 126.3   300 8.7
2004-12-17 07:42:45 51°13.595 2°56.103 126.3   247 8.6
2004-12-17 07:42:51 51°13.595 2°56.103 126.3   169 8.7
2004-12-17 07:42:55 51°13.595 2°56.103 126.3   222 8.7
2004-12-17 07:43:00 51°13.595 2°56.103 126.3   234 8.6
2004-12-17 07:43:05 51°13.595 2°56.103 126.2   346 8.6
2004-12-17 07:43:11 51°13.595 2°56.103 126.2   212 8.7
2004-12-17 07:43:15 51°13.595 2°56.103 126.2   249 8.7
2004-12-17 07:43:19 51°13.595 2°56.103 126.2   308 8.7
2004-12-17 07:43:25 51°13.595 2°56.103 126.2   265 8.7
2004-12-17 07:43:31 51°13.595 2°56.103 126.2   9 8.7
2004-12-17 07:43:35 51°13.595 2°56.103 126.2   237 8.7
2004-12-17 07:43:40 51°13.595 2°56.103 126.2   99 8.7
2004-12-17 07:43:45 51°13.595 2°56.103 126.2   257 8.7
2004-12-17 07:43:51 51°13.594 2°56.103 126.2   139 8.7
2004-12-17 07:43:55 51°13.594 2°56.103 126.2   358 8.7
2004-12-17 07:43:59 51°13.594 2°56.103 126.2   233 8.6
2004-12-17 07:44:05 51°13.594 2°56.103 126.3   355 8.6
2004-12-17 07:44:11 51°13.594 2°56.103 126.3   259 8.6
2004-12-17 07:44:15 51°13.594 2°56.103 126.3   280 8.8
2004-12-17 07:44:20 51°13.594 2°56.103 126.3   238 8.6
2004-12-17 07:44:25 51°13.594 2°56.103 126.3   352 8.6
2004-12-17 07:44:31 51°13.594 2°56.103 126.3   297 8.6
2004-12-17 07:44:35 51°13.594 2°56.103 126.3   309 8.6
2004-12-17 07:44:41 51°13.594 2°56.104 126.3   351 8.6
2004-12-17 07:44:45 51°13.594 2°56.104 126.3   223 8.6
2004-12-17 07:44:51 51°13.595 2°56.104 126.2   258 8.7
2004-12-17 07:44:55 51°13.595 2°56.104 126.2   268 8.6
2004-12-17 07:45:00 51°13.595 2°56.104 126.2   298 8.6
2004-12-17 07:45:05 51°13.595 2°56.104 126.2   299 8.6
2004-12-17 07:45:11 51°13.595 2°56.104 126.2   71 8.6
2004-12-17 07:45:15 51°13.595 2°56.104 126.2   296 8.6
2004-12-17 07:45:19 51°13.595 2°56.104 126.2   309 8.6
2004-12-17 07:45:25 51°13.595 2°56.104 126.2   294 8.6
2004-12-17 07:45:31 51°13.595 2°56.104 126.2   266 8.6
2004-12-17 07:45:35 51°13.595 2°56.104 126.2   330 8.6
2004-12-17 07:45:40 51°13.595 2°56.104 126.2   341 8.6
2004-12-17 07:45:45 51°13.595 2°56.104 126.2   222 8.6
2004-12-17 07:45:51 51°13.595 2°56.104 126.2   322 8.6
2004-12-17 07:45:55 51°13.595 2°56.104 126.2   4 8.6
2004-12-17 07:45:59 51°13.594 2°56.104 126.2   229 8.6
2004-12-17 07:46:05 51°13.595 2°56.104 126.2   333 8.6
2004-12-17 07:46:11 51°13.595 2°56.104 126.2   355 8.6
2004-12-17 07:46:15 51°13.595 2°56.104 126.2   198 8.6
2004-12-17 07:46:20 51°13.595 2°56.104 126.2   12 8.6
2004-12-17 07:46:25 51°13.595 2°56.104 126.2   271 8.5
2004-12-17 07:46:31 51°13.595 2°56.104 126.2   251 8.5
2004-12-17 07:46:35 51°13.595 2°56.104 126.2   164 8.5
2004-12-17 07:46:39 51°13.594 2°56.104 126.2   163 8.6
2004-12-17 07:46:45 51°13.594 2°56.104 126.2   8 8.6
2004-12-17 07:46:51 51°13.594 2°56.104 126.2   297 8.6
2004-12-17 07:46:55 51°13.594 2°56.104 126.2   284 8.5
2004-12-17 07:47:00 51°13.594 2°56.104 126.2   241 8.5
2004-12-17 07:47:05 51°13.594 2°56.104 126.3   161 8.6
2004-12-17 07:47:11 51°13.594 2°56.104 126.3   128 8.6
2004-12-17 07:47:15 51°13.594 2°56.104 126.3   68 8.6
2004-12-17 07:47:21 51°13.594 2°56.104 126.3   248 8.5
2004-12-17 07:47:25 51°13.594 2°56.104 126.3   306 8.5
2004-12-17 07:47:31 51°13.594 2°56.104 126.3   236 8.6
2004-12-17 07:47:35 51°13.594 2°56.104 126.3   204 8.5
2004-12-17 07:47:40 51°13.594 2°56.104 126.3   243 8.5
2004-12-17 07:47:45 51°13.594 2°56.103 126.3   66 8.5
2004-12-17 07:47:51 51°13.594 2°56.103 126.3   241 8.5
2004-12-17 07:47:55 51°13.594 2°56.103 126.3   268 8.5
2004-12-17 07:48:01 51°13.594 2°56.103 126.3   264 8.5
2004-12-17 07:48:05 51°13.594 2°56.103 126.3   227 8.5
2004-12-17 07:48:11 51°13.594 2°56.103 126.3   56 8.5
2004-12-17 07:48:15 51°13.594 2°56.103 126.3   347 8.5
2004-12-17 07:48:20 51°13.594 2°56.103 126.3   281 8.5
2004-12-17 07:48:25 51°13.594 2°56.103 126.3   309 8.6
2004-12-17 07:48:31 51°13.594 2°56.103 126.3   266 8.5
2004-12-17 07:48:35 51°13.594 2°56.103 126.3   240 8.5
2004-12-17 07:48:39 51°13.594 2°56.103 126.3   295 8.5
2004-12-17 07:48:45 51°13.593 2°56.103 126.3   236 8.5
2004-12-17 07:48:51 51°13.593 2°56.103 126.3   285 8.6
2004-12-17 07:48:55 51°13.593 2°56.103 126.3   282 8.6
2004-12-17 07:49:00 51°13.593 2°56.103 126.2   70 8.5
2004-12-17 07:49:05 51°13.593 2°56.103 126.2   10 8.5
2004-12-17 07:49:11 51°13.593 2°56.103 126.2   323 8.5
2004-12-17 07:49:15 51°13.593 2°56.103 126.2   332 8.6
2004-12-17 07:49:21 51°13.593 2°56.103 126.2   263 8.6
2004-12-17 07:49:25 51°13.593 2°56.103 126.2   257 8.5
2004-12-17 07:49:31 51°13.593 2°56.103 126.2   262 8.5
2004-12-17 07:49:35 51°13.593 2°56.103 126.2   58 8.5
2004-12-17 07:49:40 51°13.593 2°56.103 126.2   214 8.5
2004-12-17 07:49:45 51°13.593 2°56.103 126.2   290 8.5
2004-12-17 07:49:51 51°13.593 2°56.103 126.2   318 8.5
2004-12-17 07:49:55 51°13.593 2°56.103 126.2   274 8.5
2004-12-17 07:49:59 51°13.593 2°56.103 126.2   351 8.5
2004-12-17 07:50:05 51°13.593 2°56.103 126.2   241 8.5
2004-12-17 07:50:11 51°13.593 2°56.103 126.2   329 8.5
2004-12-17 07:50:15 51°13.593 2°56.103 126.2   252 8.5
2004-12-17 07:50:20 51°13.593 2°56.103 126.2   309 8.5
2004-12-17 07:50:25 51°13.593 2°56.103 126.2   265 8.5
2004-12-17 07:50:31 51°13.593 2°56.102 126.2   11 8.6
2004-12-17 07:50:35 51°13.593 2°56.102 126.2   229 8.5
2004-12-17 07:50:39 51°13.593 2°56.102 126.2   305 8.5
2004-12-17 07:50:45 51°13.593 2°56.102 126.2   272 8.5
2004-12-17 07:50:51 51°13.593 2°56.102 126.2   251 8.5
2004-12-17 07:50:55 51°13.593 2°56.102 126.2   300 8.5
2004-12-17 07:51:00 51°13.593 2°56.102 126.2   242 8.8
2004-12-17 07:51:05 51°13.593 2°56.102 126.2   300 8.5
2004-12-17 07:51:11 51°13.593 2°56.102 126.2   216 8.6
2004-12-17 07:51:15 51°13.593 2°56.102 126.2   230 8.5
2004-12-17 07:51:19 51°13.593 2°56.103 126.2   34 8.5
2004-12-17 07:51:24 51°13.593 2°56.103 126.2   232 8.5
2004-12-17 07:51:31 51°13.593 2°56.103 126.2   359 8.5
2004-12-17 07:51:35 51°13.593 2°56.103 126.2   5 8.6
2004-12-17 07:51:40 51°13.593 2°56.103 126.2   298 8.5
2004-12-17 07:51:45 51°13.593 2°56.103 126.2   293 8.5
2004-12-17 07:51:51 51°13.593 2°56.103 126.2   338 8.5
2004-12-17 07:51:55 51°13.593 2°56.103 126.2   350 8.5
2004-12-17 07:51:59 51°13.593 2°56.103 126.2   213 8.5
2004-12-17 07:52:04 51°13.593 2°56.103 126.2   55 8.5
2004-12-17 07:52:11 51°13.593 2°56.102 126.2   250 8.5
2004-12-17 07:52:15 51°13.593 2°56.102 126.2   226 8.5
2004-12-17 07:52:20 51°13.593 2°56.102 126.2   278 8.5
2004-12-17 07:52:25 51°13.593 2°56.102 126.2   248 8.5
2004-12-17 07:52:31 51°13.593 2°56.103 126.2   223 8.5
2004-12-17 07:52:35 51°13.593 2°56.103 126.2   232 8.5
2004-12-17 07:52:41 51°13.593 2°56.103 126.2   209 8.5
2004-12-17 07:52:44 51°13.593 2°56.103 126.2   341 8.5
2004-12-17 07:52:51 51°13.593 2°56.103 126.2   290 8.5
2004-12-17 07:52:55 51°13.593 2°56.103 126.2   20 8.5
2004-12-17 07:53:00 51°13.593 2°56.103 126.2   226 8.5
2004-12-17 07:53:05 51°13.593 2°56.103 126.2   204 8.5
2004-12-17 07:53:11 51°13.593 2°56.103 126.2   223 8.5
2004-12-17 07:53:15 51°13.593 2°56.103 126.2   238 8.5
2004-12-17 07:53:19 51°13.593 2°56.104 126.2   229 8.5
2004-12-17 07:53:24 51°13.593 2°56.104 126.2   321 8.5
2004-12-17 07:53:31 51°13.593 2°56.104 126.2   236 8.5
2004-12-17 07:53:35 51°13.593 2°56.104 126.2   85 8.5
2004-12-17 07:53:40 51°13.593 2°56.104 126.2   320 8.5
2004-12-17 07:53:45 51°13.593 2°56.104 126.2   22 8.5
2004-12-17 07:53:51 51°13.593 2°56.104 126.2   248 8.5
2004-12-17 07:53:55 51°13.593 2°56.104 126.2   256 8.5
2004-12-17 07:53:59 51°13.593 2°56.104 126.2   333 8.5
2004-12-17 07:54:04 51°13.593 2°56.105 126.2   243 8.5
2004-12-17 07:54:11 51°13.593 2°56.105 126.2   323 8.5
2004-12-17 07:54:15 51°13.593 2°56.105 126.2   327 8.5
2004-12-17 07:54:20 51°13.593 2°56.105 126.2   50 8.5
2004-12-17 07:54:25 51°13.593 2°56.105 126.2   210 8.5
2004-12-17 07:54:31 51°13.593 2°56.104 126.2   252 8.5
2004-12-17 07:54:35 51°13.593 2°56.104 126.2   306 8.5
2004-12-17 07:54:39 51°13.593 2°56.104 126.2   255 8.5
2004-12-17 07:54:44 51°13.593 2°56.103 126.2   327 8.5
2004-12-17 07:54:51 51°13.593 2°56.103 126.2   214 8.5
2004-12-17 07:54:55 51°13.593 2°56.103 126.2   8 8.6
2004-12-17 07:55:00 51°13.593 2°56.103 126.2   350 8.5
2004-12-17 07:55:05 51°13.593 2°56.103 126.2   321 8.5
2004-12-17 07:55:11 51°13.593 2°56.103 126.2   240 8.5
2004-12-17 07:55:15 51°13.593 2°56.103 126.2   274 8.6
2004-12-17 07:55:19 51°13.593 2°56.103 126.2     8.5
2004-12-17 07:55:25 51°13.593 2°56.103 126.2   258 8.6
2004-12-17 07:55:31 51°13.593 2°56.103 126.2   312 8.5
2004-12-17 07:55:35 51°13.593 2°56.103 126.2   315 8.6
2004-12-17 07:55:40 51°13.593 2°56.103 126.1   263 8.5
2004-12-17 07:55:45 51°13.593 2°56.103 126.1     8.5
2004-12-17 07:55:51 51°13.593 2°56.104 126.1   147 8.5
2004-12-17 07:55:55 51°13.593 2°56.104 126   242 8.5
2004-12-17 07:56:01 51°13.593 2°56.104 126   329 8.5
2004-12-17 07:56:05 51°13.593 2°56.104 126   20 8.5
2004-12-17 07:56:11 51°13.593 2°56.103 126   240 8.5
2004-12-17 07:56:15 51°13.593 2°56.103 126   238 8.5
2004-12-17 07:56:20 51°13.593 2°56.103 126   32 8.5
2004-12-17 07:56:25 51°13.593 2°56.103 126   228 8.5
2004-12-17 07:56:31 51°13.594 2°56.103 126   20 8.5
2004-12-17 07:56:35 51°13.594 2°56.102 126   43 8.6
2004-12-17 07:56:39 51°13.594 2°56.102 126   21 8.5
2004-12-17 07:56:45 51°13.594 2°56.102 126   354 8.5
2004-12-17 07:56:51 51°13.594 2°56.102 126   276 8.5
2004-12-17 07:56:56 51°13.594 2°56.102 126   55 8.5
2004-12-17 07:57:00 51°13.594 2°56.102 126   55 8.5
2004-12-17 07:57:05 51°13.593 2°56.103 126   231 8.5
2004-12-17 07:57:11 51°13.593 2°56.103 126   317 8.5
2004-12-17 07:57:15 51°13.593 2°56.103 126   238 8.5
2004-12-17 07:57:20 51°13.593 2°56.103 126.1   252 8.5
2004-12-17 07:57:25 51°13.593 2°56.103 126.1   21 8.5
2004-12-17 07:57:31 51°13.593 2°56.103 126.1   219 8.5
2004-12-17 07:57:35 51°13.593 2°56.103 126   2 9.2
2004-12-17 07:57:39 51°13.594 2°56.103 126   222 8.5
2004-12-17 07:57:44 51°13.594 2°56.103 126   358 8.5
2004-12-17 07:57:51 51°13.594 2°56.103 126   211 8.5
2004-12-17 07:57:55 51°13.594 2°56.103 126   233 8.5
2004-12-17 07:58:00 51°13.594 2°56.103 126   279 8.5
2004-12-17 07:58:05 51°13.594 2°56.103 126   233 8.5